Tropical Cyclones
[Index]
Main Index Home Page Stock Weather Photos Extreme Storms Discussion Storm News and Storm Chasing Reports Tropical Cyclones / Hurricanes / Typhoons Weather Data and Links Wild Fires / Bushfires Weather Observation Techniques Weather Picture Catalogue Tornado Pictures and Reports Stock Video Footage and DVDs for sale
Season 2014-2015 Tropical Cyclone BAKUNG Track Map
Season 2014-2015 Summaries (Operational Data): [AU] [SIO] [SPAC] [SH]
<<- Previous TC | 2014-2015 Season | Next TC ->>

click for intensity scale information  Lat/long Grid: Show Hide

 Date Labels: Show Hide

Operational Tropical Cyclone Data : JTWC Advisories

Name: BAKUNG
Number: 1503

09 Dec 2014 00:00 UTC to 16 Dec 2014 18:00 UTC

    date/time    lat    long     hPa   cat  kts
2014-12-09 00    8.1   104.0    1010         15          
2014-12-09 06    8.2   103.0    1010         15          
2014-12-09 12    8.1   102.0    1010         15          
2014-12-09 18    8.1   101.2    1010         15          
2014-12-10 00    8.1   100.5    1007         20          
2014-12-10 06    8.4    99.3    1004         25          
2014-12-10 12    8.6    98.6    1004         25          
2014-12-10 18    8.6    97.8    1004         25          
2014-12-11 00    9.1    97.1    1000         30          
2014-12-11 06    9.0    95.8    1000         30          
2014-12-11 12    8.9    95.0    1000         30          
2014-12-11 18    9.1    94.2     996    1    35          
2014-12-12 00    9.4    93.4     993    1    40          
2014-12-12 06    9.6    92.8     993    1    40          
2014-12-12 12    9.5    91.7     996    1    35          
2014-12-12 18    9.4    91.0     996    1    35          
2014-12-13 00    9.4    90.3     996    1    35          
2014-12-13 06    9.4    89.6    1000         30          
2014-12-13 12    8.9    89.2    1004         25          
2014-12-13 18    8.9    88.4    1007         20          
2014-12-14 00    8.8    87.8    1007         20          
2014-12-14 06    8.8    87.0    1004         25          
2014-12-14 12    8.5    86.5    1004         25          
2014-12-14 18    8.1    86.0    1007         20          
2014-12-15 00    7.8    85.6    1007         20          
2014-12-15 06    7.7    85.1    1004         25          
2014-12-15 12    7.5    84.8    1007         20          
2014-12-15 18    7.3    84.4    1007         20          
2014-12-16 00    7.0    84.5    1007         20          
2014-12-16 06    7.0    84.9    1007         20          
2014-12-16 12    7.4    85.3    1007         20          
2014-12-16 18    7.7    85.8    1007         20          
Winds are 10-min average.

Tropical cyclone tracks developed by Michael Bath using operational warnings and advisories and Google Maps.


[Australian Severe Weather index] [Copyright Notice] [Email Contacts] [Search This Site] [Privacy Policy]
Document: tropical_cyclone_bakung.htm Updated: 2 May 2017